Weaverville, CA

4:08 PM PDT on May 22, 2017 (GMT -0700)
Weaverville

Weather History for KO54 - April, 2014

Change the Weather History Date:

Tuesday, April 22, 2014

  Actual Average (KRDD) Record (KRDD)
Temperature  
Mean Temperature 47 °F -  
Max Temperature 53 °F 70 °F 92 °F (2009)
Min Temperature 41 °F 46 °F 41 °F (1989)
Degree Days  
Heating Degree Days 18    
Moisture  
Dew Point 30 °F    
Average Humidity 55    
Maximum Humidity 81    
Minimum Humidity 35    
Precipitation  
Precipitation 0.00 in - - ()
Sea Level Pressure  
Sea Level Pressure 29.99 in    
Wind  
Wind Speed 8 mph (WSW)    
Max Wind Speed 18 mph    
Max Gust Speed 25 mph    
Visibility 10 miles    
Events      
Averages and records for this station are not official NWS values.
T = Trace of Precipitation, MM = Missing Value Source: NWS Daily Summary

Daily Weather History Graph

Daily Weather History Graph

Search for Another Location

Airport or City:

Trip Planner

Search our weather history database for the weather conditions in past years. The results will help you decide how hot, cold, wet, or windy it might be!

Date:

Astronomy

Apr. 22, 2014 Rise Set
Actual Time 6:22 AM PDT 7:58 PM PDT
Civil Twilight 5:53 AM PDT 8:27 PM PDT
Nautical Twilight 5:18 AM PDT 9:02 PM PDT
Astronomical Twilight 4:41 AM PDT 9:40 PM PDT
Moon 2:17 AM PDT 1:03 PM PDT
Length of Visible Light 14h 34m
Length of Day
13h 36m
Last Quarter, 45% of the Moon is Illuminated
Apr 22
Last Quarter
Apr 28
New
May 6
First Quarter
May 14
Full
May 21
Last Quarter

Hourly Weather History & Observations

Time (PDT) Temp. Windchill Dew Point Humidity Pressure Visibility Wind Dir Wind Speed Gust Speed Precip Events Conditions
12:15 AM 44.6 °F 40.7 °F 37.4 °F 76% 29.88 in 10.0 mi SW 6.9 mph - N/A   Overcast
12:35 AM 44.6 °F 42.2 °F 35.6 °F 71% 29.88 in 10.0 mi South 4.6 mph - N/A   Overcast
12:55 AM 44.6 °F 41.4 °F 35.6 °F 71% 29.90 in 10.0 mi SSW 5.8 mph - N/A   Overcast
1:15 AM 44.6 °F 41.4 °F 35.6 °F 71% 29.89 in 10.0 mi SSW 5.8 mph - N/A   Overcast
1:35 AM 44.6 °F 42.2 °F 35.6 °F 71% 29.90 in 10.0 mi SSW 4.6 mph - N/A   Overcast
1:55 AM 42.8 °F 39.3 °F 35.6 °F 76% 29.89 in 10.0 mi SSW 5.8 mph - N/A   Overcast
2:15 AM 41.0 °F 34.7 °F 35.6 °F 81% 29.90 in 10.0 mi WSW 10.4 mph 19.6 mph N/A   Overcast
2:35 AM 41.0 °F 37.1 °F 33.8 °F 76% 29.89 in 10.0 mi SSW 5.8 mph 17.3 mph N/A   Mostly Cloudy
2:55 AM 41.0 °F 38.0 °F 33.8 °F 76% 29.88 in 10.0 mi SE 4.6 mph 16.1 mph N/A   Scattered Clouds
3:15 AM 41.0 °F - 32.0 °F 70% 29.89 in 10.0 mi Calm Calm - N/A   Mostly Cloudy
3:35 AM 41.0 °F 39.0 °F 32.0 °F 70% 29.89 in 10.0 mi South 3.5 mph - N/A   Mostly Cloudy
3:55 AM 41.0 °F 35.2 °F 32.0 °F 70% 29.90 in 10.0 mi WSW 9.2 mph 17.3 mph N/A   Mostly Cloudy
4:15 AM 41.0 °F 33.5 °F 32.0 °F 70% 29.90 in 10.0 mi WSW 13.8 mph 23.0 mph N/A   Scattered Clouds
4:35 AM 41.0 °F 35.2 °F 32.0 °F 70% 29.90 in 10.0 mi WSW 9.2 mph 18.4 mph N/A   Scattered Clouds
4:55 AM 41.0 °F 39.0 °F 32.0 °F 70% 29.91 in 10.0 mi West 3.5 mph - N/A   Scattered Clouds
5:15 AM 41.0 °F 35.8 °F 32.0 °F 70% 29.91 in 10.0 mi West 8.1 mph - N/A   Mostly Cloudy
5:35 AM 41.0 °F 38.0 °F 32.0 °F 70% 29.92 in 10.0 mi WSW 4.6 mph - N/A   Scattered Clouds
5:55 AM 41.0 °F 39.0 °F 32.0 °F 70% 29.93 in 10.0 mi SSE 3.5 mph - N/A   Scattered Clouds
6:15 AM 41.0 °F 35.2 °F 32.0 °F 70% 29.94 in 10.0 mi West 9.2 mph - N/A   Mostly Cloudy
6:35 AM 41.0 °F 34.7 °F 32.0 °F 70% 29.95 in 10.0 mi SW 10.4 mph 18.4 mph N/A   Scattered Clouds
6:55 AM 41.0 °F 34.7 °F 32.0 °F 70% 29.96 in 10.0 mi SW 10.4 mph 17.3 mph N/A   Clear
7:15 AM 41.0 °F 34.3 °F 32.0 °F 70% 29.96 in 10.0 mi WSW 11.5 mph 18.4 mph N/A   Clear
7:35 AM 41.0 °F 34.3 °F 32.0 °F 70% 29.97 in 10.0 mi WSW 11.5 mph 18.4 mph N/A   Clear
7:55 AM 41.0 °F 33.9 °F 32.0 °F 70% 29.97 in 10.0 mi SW 12.7 mph 20.7 mph N/A   Clear
8:15 AM 42.8 °F 37.0 °F 32.0 °F 66% 29.97 in 10.0 mi WSW 10.4 mph 21.9 mph N/A   Clear
8:35 AM 44.6 °F 37.2 °F 32.0 °F 61% 29.98 in 10.0 mi WSW 17.3 mph 21.9 mph N/A   Clear
8:55 AM 44.6 °F 38.1 °F 30.2 °F 57% 29.98 in 10.0 mi SW 13.8 mph 21.9 mph N/A   Clear
9:15 AM 44.6 °F 38.1 °F 30.2 °F 57% 29.98 in 10.0 mi WSW 13.8 mph 25.3 mph N/A   Clear
9:35 AM 44.6 °F 39.2 °F 30.2 °F 57% 29.99 in 10.0 mi SW 10.4 mph 25.3 mph N/A   Clear
9:55 AM 46.4 °F 39.2 °F 28.4 °F 50% 29.99 in 10.0 mi WSW 18.4 mph 25.3 mph N/A   Clear
10:15 AM 46.4 °F 40.4 °F 28.4 °F 50% 30.00 in 10.0 mi WSW 13.8 mph 21.9 mph N/A   Clear
10:35 AM 48.2 °F - 28.4 °F 46% 30.00 in 10.0 mi SW 12.7 mph 21.9 mph N/A   Clear
10:55 AM 48.2 °F - 28.4 °F 46% 30.00 in 10.0 mi West 11.5 mph 23.0 mph N/A   Clear
11:15 AM 48.2 °F - 28.4 °F 46% 30.00 in 10.0 mi WSW 16.1 mph 25.3 mph N/A   Clear
11:35 AM 50.0 °F - 28.4 °F 43% 30.00 in 10.0 mi SW 13.8 mph 21.9 mph N/A   Clear
11:55 AM 50.0 °F - 28.4 °F 43% 30.01 in 10.0 mi West 11.5 mph 25.3 mph N/A   Clear
12:15 PM 50.0 °F - 28.4 °F 43% 30.01 in 10.0 mi WSW 16.1 mph 25.3 mph N/A   Clear
12:35 PM 53.6 °F - 26.6 °F 35% 30.01 in 10.0 mi WSW 12.7 mph 20.7 mph N/A   Clear
12:55 PM 53.6 °F - 26.6 °F 35% 30.01 in 10.0 mi WSW 16.1 mph 24.2 mph N/A   Scattered Clouds
1:15 PM 53.6 °F - 26.6 °F 35% 30.02 in 10.0 mi WSW 12.7 mph 20.7 mph N/A   Scattered Clouds
1:35 PM 53.6 °F - 26.6 °F 35% 30.02 in 10.0 mi WSW 12.7 mph 20.7 mph N/A   Clear
1:55 PM 51.8 °F - 30.2 °F 44% 30.03 in 10.0 mi SW 9.2 mph 24.2 mph N/A   Clear
2:15 PM 53.6 °F - 30.2 °F 41% 30.03 in 10.0 mi WSW 11.5 mph 20.7 mph N/A   Partly Cloudy
2:35 PM 46.4 °F 41.5 °F 35.6 °F 66% 30.04 in 5.0 mi SW 10.4 mph 20.7 mph N/A   Clear
2:55 PM 50.0 °F - 32.0 °F 50% 30.04 in 10.0 mi SW 10.4 mph 19.6 mph N/A   Clear
3:15 PM 51.8 °F - 32.0 °F 47% 30.03 in 10.0 mi WSW 11.5 mph 19.6 mph N/A   Clear
3:35 PM 50.0 °F - 32.0 °F 50% 30.03 in 10.0 mi Calm Calm - N/A   Partly Cloudy
3:55 PM 53.6 °F - 26.6 °F 35% 30.03 in 10.0 mi West 9.2 mph 19.6 mph N/A   Clear
4:15 PM 53.6 °F - 26.6 °F 35% 30.03 in 10.0 mi West 6.9 mph - N/A   Scattered Clouds
4:35 PM 50.0 °F - 26.6 °F 40% 30.03 in 10.0 mi SW 10.4 mph 19.6 mph N/A   Mostly Cloudy
4:55 PM 50.0 °F - 28.4 °F 43% 30.03 in 10.0 mi NNW 10.4 mph 19.6 mph N/A   Scattered Clouds
5:15 PM 50.0 °F - 28.4 °F 43% 30.04 in 10.0 mi WNW 9.2 mph - N/A   Scattered Clouds
5:35 PM 50.0 °F - 26.6 °F 40% 30.04 in 10.0 mi WNW 6.9 mph - N/A   Mostly Cloudy
5:55 PM 50.0 °F - 26.6 °F 40% 30.04 in 10.0 mi West 4.6 mph - N/A   Mostly Cloudy
6:15 PM 50.0 °F - 28.4 °F 43% 30.04 in 10.0 mi NW 6.9 mph - N/A   Mostly Cloudy
6:35 PM 50.0 °F - 26.6 °F 40% 30.04 in 10.0 mi SW 8.1 mph 16.1 mph N/A   Overcast
6:55 PM 48.2 °F - 26.6 °F 43% 30.04 in 10.0 mi SW 3.5 mph - N/A   Overcast
7:15 PM 48.2 °F - 26.6 °F 43% 30.05 in 10.0 mi NNW 6.9 mph - N/A   Overcast
7:35 PM 48.2 °F - 28.4 °F 46% 30.05 in 10.0 mi NW 8.1 mph - N/A   Mostly Cloudy
7:55 PM 46.4 °F 43.5 °F 26.6 °F 46% 30.06 in 10.0 mi NW 5.8 mph - N/A   Partly Cloudy
8:15 PM 46.4 °F 45.2 °F 26.6 °F 46% 30.06 in 10.0 mi West 3.5 mph - N/A   Partly Cloudy
8:35 PM 46.4 °F 42.9 °F 26.6 °F 46% 30.07 in 10.0 mi WSW 6.9 mph - N/A   Scattered Clouds
8:55 PM 46.4 °F 42.4 °F 26.6 °F 46% 30.08 in 10.0 mi WSW 8.1 mph - N/A   Scattered Clouds
9:15 PM 46.4 °F 42.4 °F 26.6 °F 46% 30.08 in 10.0 mi WSW 8.1 mph - N/A   Scattered Clouds
9:35 PM 44.6 °F 42.2 °F 26.6 °F 49% 30.08 in 10.0 mi WSW 4.6 mph - N/A   Mostly Cloudy
9:55 PM 44.6 °F 43.1 °F 26.6 °F 49% 30.08 in 10.0 mi NW 3.5 mph - N/A   Mostly Cloudy
10:15 PM 44.6 °F 42.2 °F 26.6 °F 49% 30.08 in 10.0 mi WSW 4.6 mph - N/A   Overcast
10:35 PM 44.6 °F 40.7 °F 28.4 °F 53% 30.08 in 10.0 mi SW 6.9 mph - N/A   Overcast
10:55 PM 44.6 °F 40.7 °F 26.6 °F 49% 30.08 in 10.0 mi South 6.9 mph - N/A   Overcast
11:15 PM 44.6 °F 40.2 °F 26.6 °F 49% 30.09 in 10.0 mi SSW 8.1 mph - N/A   Mostly Cloudy
11:35 PM 42.8 °F 39.3 °F 26.6 °F 53% 30.09 in 10.0 mi South 5.8 mph - N/A   Mostly Cloudy
11:55 PM 41.0 °F 36.4 °F 26.6 °F 57% 30.09 in 10.0 mi SSW 6.9 mph - N/A   Mostly Cloudy